sensor_id;sensor_type;location;lat;lon;timestamp;P1;durP1;ratioP1;P2;durP2;ratioP2
23668;SDS011;12011;47.422;15.018;2022-10-23T00:00:48;1.73;;;1.72;;
23668;SDS011;12011;47.422;15.018;2022-10-23T00:03:18;1.52;;;1.51;;
23668;SDS011;12011;47.422;15.018;2022-10-23T00:05:47;1.61;;;1.60;;
23668;SDS011;12011;47.422;15.018;2022-10-23T00:08:19;1.62;;;1.62;;
23668;SDS011;12011;47.422;15.018;2022-10-23T00:10:54;1.55;;;1.55;;
23668;SDS011;12011;47.422;15.018;2022-10-23T00:13:23;1.64;;;1.64;;
23668;SDS011;12011;47.422;15.018;2022-10-23T00:15:53;1.36;;;1.36;;
23668;SDS011;12011;47.422;15.018;2022-10-23T00:18:23;1.52;;;1.51;;
23668;SDS011;12011;47.422;15.018;2022-10-23T00:20:55;1.37;;;1.36;;
23668;SDS011;12011;47.422;15.018;2022-10-23T00:23:30;1.33;;;1.32;;
23668;SDS011;12011;47.422;15.018;2022-10-23T00:26:05;1.58;;;1.58;;
23668;SDS011;12011;47.422;15.018;2022-10-23T00:28:44;1.53;;;1.53;;
23668;SDS011;12011;47.422;15.018;2022-10-23T00:31:17;1.54;;;1.54;;
23668;SDS011;12011;47.422;15.018;2022-10-23T00:33:51;1.59;;;1.59;;
23668;SDS011;12011;47.422;15.018;2022-10-23T00:36:23;1.58;;;1.58;;
23668;SDS011;12011;47.422;15.018;2022-10-23T00:38:53;1.56;;;1.56;;
23668;SDS011;12011;47.422;15.018;2022-10-23T00:41:28;1.55;;;1.55;;
23668;SDS011;12011;47.422;15.018;2022-10-23T00:44:02;1.61;;;1.61;;
23668;SDS011;12011;47.422;15.018;2022-10-23T00:46:40;1.62;;;1.62;;
23668;SDS011;12011;47.422;15.018;2022-10-23T00:49:12;1.67;;;1.67;;
23668;SDS011;12011;47.422;15.018;2022-10-23T00:51:43;1.64;;;1.64;;
23668;SDS011;12011;47.422;15.018;2022-10-23T00:54:23;1.68;;;1.68;;
23668;SDS011;12011;47.422;15.018;2022-10-23T00:57:01;1.62;;;1.62;;
23668;SDS011;12011;47.422;15.018;2022-10-23T00:59:35;1.78;;;1.78;;
23668;SDS011;12011;47.422;15.018;2022-10-23T01:02:08;1.75;;;1.75;;
23668;SDS011;12011;47.422;15.018;2022-10-23T01:04:39;1.67;;;1.67;;
23668;SDS011;12011;47.422;15.018;2022-10-23T01:07:13;1.61;;;1.61;;
23668;SDS011;12011;47.422;15.018;2022-10-23T01:09:54;1.30;;;1.30;;
23668;SDS011;12011;47.422;15.018;2022-10-23T01:12:37;1.40;;;1.40;;
23668;SDS011;12011;47.422;15.018;2022-10-23T01:15:21;1.36;;;1.36;;
23668;SDS011;12011;47.422;15.018;2022-10-23T01:18:01;1.25;;;1.25;;
23668;SDS011;12011;47.422;15.018;2022-10-23T01:20:45;1.16;;;1.16;;
23668;SDS011;12011;47.422;15.018;2022-10-23T01:26:46;1.28;;;1.28;;
23668;SDS011;12011;47.422;15.018;2022-10-23T01:29:44;1.11;;;1.11;;
23668;SDS011;12011;47.422;15.018;2022-10-23T01:32:32;1.29;;;1.29;;
23668;SDS011;12011;47.422;15.018;2022-10-23T01:35:11;1.24;;;1.24;;
23668;SDS011;12011;47.422;15.018;2022-10-23T01:37:53;1.32;;;1.32;;
23668;SDS011;12011;47.422;15.018;2022-10-23T01:40:33;1.32;;;1.32;;
23668;SDS011;12011;47.422;15.018;2022-10-23T01:43:16;1.27;;;1.27;;
23668;SDS011;12011;47.422;15.018;2022-10-23T01:45:55;1.28;;;1.27;;
23668;SDS011;12011;47.422;15.018;2022-10-23T01:48:29;1.22;;;1.22;;
23668;SDS011;12011;47.422;15.018;2022-10-23T01:51:04;1.09;;;1.09;;
23668;SDS011;12011;47.422;15.018;2022-10-23T01:53:41;1.18;;;1.18;;
23668;SDS011;12011;47.422;15.018;2022-10-23T01:56:16;1.20;;;1.20;;
23668;SDS011;12011;47.422;15.018;2022-10-23T01:58:56;1.19;;;1.19;;
23668;SDS011;12011;47.422;15.018;2022-10-23T02:01:36;1.19;;;1.19;;
23668;SDS011;12011;47.422;15.018;2022-10-23T02:04:14;1.22;;;1.21;;
23668;SDS011;12011;47.422;15.018;2022-10-23T02:06:52;1.21;;;1.20;;
23668;SDS011;12011;47.422;15.018;2022-10-23T02:09:24;1.17;;;1.17;;
23668;SDS011;12011;47.422;15.018;2022-10-23T02:11:56;1.29;;;1.28;;
23668;SDS011;12011;47.422;15.018;2022-10-23T02:14:36;1.31;;;1.30;;
23668;SDS011;12011;47.422;15.018;2022-10-23T02:17:15;1.31;;;1.31;;
23668;SDS011;12011;47.422;15.018;2022-10-23T02:19:57;1.20;;;1.19;;
23668;SDS011;12011;47.422;15.018;2022-10-23T02:22:44;1.17;;;1.16;;
23668;SDS011;12011;47.422;15.018;2022-10-23T02:25:27;1.34;;;1.34;;
23668;SDS011;12011;47.422;15.018;2022-10-23T02:28:05;1.22;;;1.22;;
23668;SDS011;12011;47.422;15.018;2022-10-23T02:30:46;1.26;;;1.25;;
23668;SDS011;12011;47.422;15.018;2022-10-23T02:33:18;1.21;;;1.20;;
23668;SDS011;12011;47.422;15.018;2022-10-23T02:35:49;1.08;;;1.07;;
23668;SDS011;12011;47.422;15.018;2022-10-23T02:41:15;1.31;;;1.30;;
23668;SDS011;12011;47.422;15.018;2022-10-23T02:44:13;1.19;;;1.19;;
23668;SDS011;12011;47.422;15.018;2022-10-23T02:47:03;1.39;;;1.39;;
23668;SDS011;12011;47.422;15.018;2022-10-23T02:49:52;1.12;;;1.12;;
23668;SDS011;12011;47.422;15.018;2022-10-23T02:52:37;1.71;;;1.71;;
23668;SDS011;12011;47.422;15.018;2022-10-23T02:55:21;1.51;;;1.51;;
23668;SDS011;12011;47.422;15.018;2022-10-23T02:58:08;1.79;;;1.78;;
23668;SDS011;12011;47.422;15.018;2022-10-23T03:00:50;1.53;;;1.53;;
23668;SDS011;12011;47.422;15.018;2022-10-23T03:03:30;1.37;;;1.37;;
23668;SDS011;12011;47.422;15.018;2022-10-23T03:06:07;1.51;;;1.51;;
23668;SDS011;12011;47.422;15.018;2022-10-23T03:08:41;1.21;;;1.21;;
23668;SDS011;12011;47.422;15.018;2022-10-23T03:11:11;1.21;;;1.21;;
23668;SDS011;12011;47.422;15.018;2022-10-23T03:13:41;1.39;;;1.39;;
23668;SDS011;12011;47.422;15.018;2022-10-23T03:16:11;1.21;;;1.20;;
23668;SDS011;12011;47.422;15.018;2022-10-23T03:18:50;1.35;;;1.35;;
23668;SDS011;12011;47.422;15.018;2022-10-23T03:21:20;1.50;;;1.50;;
23668;SDS011;12011;47.422;15.018;2022-10-23T03:23:51;1.28;;;1.28;;
23668;SDS011;12011;47.422;15.018;2022-10-23T03:26:35;1.42;;;1.42;;
23668;SDS011;12011;47.422;15.018;2022-10-23T03:29:05;1.11;;;1.11;;
23668;SDS011;12011;47.422;15.018;2022-10-23T03:31:40;1.27;;;1.27;;
23668;SDS011;12011;47.422;15.018;2022-10-23T03:34:12;1.30;;;1.30;;
23668;SDS011;12011;47.422;15.018;2022-10-23T03:36:43;1.30;;;1.30;;
23668;SDS011;12011;47.422;15.018;2022-10-23T03:39:13;1.29;;;1.29;;
23668;SDS011;12011;47.422;15.018;2022-10-23T03:41:44;1.42;;;1.42;;
23668;SDS011;12011;47.422;15.018;2022-10-23T03:44:15;1.33;;;1.33;;
23668;SDS011;12011;47.422;15.018;2022-10-23T03:46:45;1.34;;;1.33;;
23668;SDS011;12011;47.422;15.018;2022-10-23T03:49:17;1.17;;;1.17;;
23668;SDS011;12011;47.422;15.018;2022-10-23T03:51:49;1.46;;;1.46;;
23668;SDS011;12011;47.422;15.018;2022-10-23T03:54:20;1.24;;;1.23;;
23668;SDS011;12011;47.422;15.018;2022-10-23T03:56:52;1.34;;;1.34;;
23668;SDS011;12011;47.422;15.018;2022-10-23T03:59:22;1.38;;;1.37;;
23668;SDS011;12011;47.422;15.018;2022-10-23T04:01:52;1.18;;;1.18;;
23668;SDS011;12011;47.422;15.018;2022-10-23T04:04:26;1.14;;;1.14;;
23668;SDS011;12011;47.422;15.018;2022-10-23T04:06:58;1.28;;;1.28;;
23668;SDS011;12011;47.422;15.018;2022-10-23T04:09:28;1.28;;;1.28;;
23668;SDS011;12011;47.422;15.018;2022-10-23T04:11:57;1.58;;;1.57;;
23668;SDS011;12011;47.422;15.018;2022-10-23T04:14:27;1.76;;;1.75;;
23668;SDS011;12011;47.422;15.018;2022-10-23T04:16:58;1.74;;;1.73;;
23668;SDS011;12011;47.422;15.018;2022-10-23T04:19:30;1.80;;;1.80;;
23668;SDS011;12011;47.422;15.018;2022-10-23T04:22:00;1.42;;;1.42;;
23668;SDS011;12011;47.422;15.018;2022-10-23T04:24:29;1.40;;;1.39;;
23668;SDS011;12011;47.422;15.018;2022-10-23T04:27:00;1.29;;;1.29;;
23668;SDS011;12011;47.422;15.018;2022-10-23T04:29:30;1.35;;;1.34;;
23668;SDS011;12011;47.422;15.018;2022-10-23T04:31:59;1.21;;;1.21;;
23668;SDS011;12011;47.422;15.018;2022-10-23T04:34:31;1.27;;;1.27;;
23668;SDS011;12011;47.422;15.018;2022-10-23T04:37:02;1.30;;;1.30;;
23668;SDS011;12011;47.422;15.018;2022-10-23T04:39:31;1.14;;;1.14;;
23668;SDS011;12011;47.422;15.018;2022-10-23T04:42:01;1.71;;;1.70;;
23668;SDS011;12011;47.422;15.018;2022-10-23T04:44:31;2.00;;;1.99;;
23668;SDS011;12011;47.422;15.018;2022-10-23T04:47:01;1.93;;;1.92;;
23668;SDS011;12011;47.422;15.018;2022-10-23T04:49:37;1.65;;;1.64;;
23668;SDS011;12011;47.422;15.018;2022-10-23T04:52:21;1.88;;;1.88;;
23668;SDS011;12011;47.422;15.018;2022-10-23T04:55:26;1.54;;;1.54;;
23668;SDS011;12011;47.422;15.018;2022-10-23T04:58:11;1.60;;;1.60;;
23668;SDS011;12011;47.422;15.018;2022-10-23T05:00:42;1.42;;;1.42;;
23668;SDS011;12011;47.422;15.018;2022-10-23T05:03:18;1.70;;;1.70;;
23668;SDS011;12011;47.422;15.018;2022-10-23T05:05:51;1.85;;;1.85;;
23668;SDS011;12011;47.422;15.018;2022-10-23T05:08:41;2.69;;;2.66;;
23668;SDS011;12011;47.422;15.018;2022-10-23T05:11:37;2.62;;;2.52;;
23668;SDS011;12011;47.422;15.018;2022-10-23T05:14:08;2.73;;;2.62;;
23668;SDS011;12011;47.422;15.018;2022-10-23T05:16:40;2.19;;;2.11;;
23668;SDS011;12011;47.422;15.018;2022-10-23T05:19:17;1.93;;;1.87;;
23668;SDS011;12011;47.422;15.018;2022-10-23T05:21:54;1.65;;;1.61;;
23668;SDS011;12011;47.422;15.018;2022-10-23T05:24:40;1.53;;;1.51;;
23668;SDS011;12011;47.422;15.018;2022-10-23T05:27:10;1.60;;;1.58;;
23668;SDS011;12011;47.422;15.018;2022-10-23T05:29:41;1.40;;;1.39;;
23668;SDS011;12011;47.422;15.018;2022-10-23T05:32:11;1.49;;;1.49;;
23668;SDS011;12011;47.422;15.018;2022-10-23T05:34:43;1.34;;;1.33;;
23668;SDS011;12011;47.422;15.018;2022-10-23T05:37:15;1.46;;;1.45;;
23668;SDS011;12011;47.422;15.018;2022-10-23T05:39:46;1.55;;;1.55;;
23668;SDS011;12011;47.422;15.018;2022-10-23T05:42:16;1.31;;;1.31;;
23668;SDS011;12011;47.422;15.018;2022-10-23T05:44:45;1.45;;;1.45;;
23668;SDS011;12011;47.422;15.018;2022-10-23T05:47:33;1.42;;;1.42;;
23668;SDS011;12011;47.422;15.018;2022-10-23T05:50:24;1.66;;;1.66;;
23668;SDS011;12011;47.422;15.018;2022-10-23T05:53:18;1.71;;;1.71;;
23668;SDS011;12011;47.422;15.018;2022-10-23T05:56:04;1.65;;;1.65;;
23668;SDS011;12011;47.422;15.018;2022-10-23T05:59:02;1.64;;;1.64;;
23668;SDS011;12011;47.422;15.018;2022-10-23T06:01:58;1.61;;;1.61;;
23668;SDS011;12011;47.422;15.018;2022-10-23T06:04:48;1.51;;;1.51;;
23668;SDS011;12011;47.422;15.018;2022-10-23T06:07:32;1.39;;;1.39;;
23668;SDS011;12011;47.422;15.018;2022-10-23T06:10:06;1.51;;;1.51;;
23668;SDS011;12011;47.422;15.018;2022-10-23T06:12:41;1.39;;;1.39;;
23668;SDS011;12011;47.422;15.018;2022-10-23T06:15:17;1.45;;;1.45;;
23668;SDS011;12011;47.422;15.018;2022-10-23T06:22:34;1.26;;;1.26;;
23668;SDS011;12011;47.422;15.018;2022-10-23T06:29:48;1.14;;;1.14;;
23668;SDS011;12011;47.422;15.018;2022-10-23T06:32:35;1.30;;;1.30;;
23668;SDS011;12011;47.422;15.018;2022-10-23T06:35:30;1.29;;;1.29;;
23668;SDS011;12011;47.422;15.018;2022-10-23T06:38:10;1.46;;;1.46;;
23668;SDS011;12011;47.422;15.018;2022-10-23T06:40:58;2.52;;;2.51;;
23668;SDS011;12011;47.422;15.018;2022-10-23T06:43:56;2.83;;;2.80;;
23668;SDS011;12011;47.422;15.018;2022-10-23T06:46:51;2.53;;;2.50;;
23668;SDS011;12011;47.422;15.018;2022-10-23T06:50:08;2.13;;;2.10;;
23668;SDS011;12011;47.422;15.018;2022-10-23T06:53:16;1.51;;;1.49;;
23668;SDS011;12011;47.422;15.018;2022-10-23T06:56:06;1.40;;;1.39;;
23668;SDS011;12011;47.422;15.018;2022-10-23T06:58:51;1.26;;;1.25;;
23668;SDS011;12011;47.422;15.018;2022-10-23T07:01:34;1.66;;;1.65;;
23668;SDS011;12011;47.422;15.018;2022-10-23T07:04:19;1.73;;;1.72;;
23668;SDS011;12011;47.422;15.018;2022-10-23T07:07:41;1.78;;;1.77;;
23668;SDS011;12011;47.422;15.018;2022-10-23T07:11:10;2.04;;;2.03;;
23668;SDS011;12011;47.422;15.018;2022-10-23T07:14:01;2.44;;;2.41;;
23668;SDS011;12011;47.422;15.018;2022-10-23T07:16:40;1.96;;;1.92;;
23668;SDS011;12011;47.422;15.018;2022-10-23T07:22:56;2.44;;;2.40;;
23668;SDS011;12011;47.422;15.018;2022-10-23T07:25:44;1.86;;;1.85;;
23668;SDS011;12011;47.422;15.018;2022-10-23T07:28:20;2.28;;;2.26;;
23668;SDS011;12011;47.422;15.018;2022-10-23T07:31:04;1.46;;;1.45;;
23668;SDS011;12011;47.422;15.018;2022-10-23T07:34:06;1.34;;;1.33;;
23668;SDS011;12011;47.422;15.018;2022-10-23T07:36:40;1.29;;;1.29;;
23668;SDS011;12011;47.422;15.018;2022-10-23T07:39:12;1.23;;;1.23;;
23668;SDS011;12011;47.422;15.018;2022-10-23T07:41:50;1.16;;;1.16;;
23668;SDS011;12011;47.422;15.018;2022-10-23T07:44:21;1.35;;;1.35;;
23668;SDS011;12011;47.422;15.018;2022-10-23T07:46:54;1.29;;;1.29;;
23668;SDS011;12011;47.422;15.018;2022-10-23T07:49:25;1.15;;;1.15;;
23668;SDS011;12011;47.422;15.018;2022-10-23T07:51:57;1.32;;;1.31;;
23668;SDS011;12011;47.422;15.018;2022-10-23T07:54:37;1.37;;;1.37;;
23668;SDS011;12011;47.422;15.018;2022-10-23T07:57:28;1.85;;;1.85;;
23668;SDS011;12011;47.422;15.018;2022-10-23T08:00:08;1.80;;;1.80;;
23668;SDS011;12011;47.422;15.018;2022-10-23T08:02:39;1.47;;;1.47;;
23668;SDS011;12011;47.422;15.018;2022-10-23T08:05:10;1.28;;;1.28;;
23668;SDS011;12011;47.422;15.018;2022-10-23T08:07:50;1.01;;;1.01;;
23668;SDS011;12011;47.422;15.018;2022-10-23T08:10:21;1.10;;;1.10;;
23668;SDS011;12011;47.422;15.018;2022-10-23T08:12:51;0.81;;;0.81;;
23668;SDS011;12011;47.422;15.018;2022-10-23T08:15:30;0.75;;;0.75;;
23668;SDS011;12011;47.422;15.018;2022-10-23T08:18:06;0.95;;;0.95;;
23668;SDS011;12011;47.422;15.018;2022-10-23T08:20:43;0.79;;;0.79;;
23668;SDS011;12011;47.422;15.018;2022-10-23T08:23:20;0.76;;;0.76;;
23668;SDS011;12011;47.422;15.018;2022-10-23T08:25:54;1.01;;;1.01;;
23668;SDS011;12011;47.422;15.018;2022-10-23T08:28:28;1.21;;;1.21;;
23668;SDS011;12011;47.422;15.018;2022-10-23T08:31:05;0.77;;;0.77;;
23668;SDS011;12011;47.422;15.018;2022-10-23T08:33:36;0.75;;;0.75;;
23668;SDS011;12011;47.422;15.018;2022-10-23T08:36:12;0.90;;;0.90;;
23668;SDS011;12011;47.422;15.018;2022-10-23T08:38:48;0.97;;;0.97;;
23668;SDS011;12011;47.422;15.018;2022-10-23T08:41:23;1.15;;;1.15;;
23668;SDS011;12011;47.422;15.018;2022-10-23T08:44:06;1.15;;;1.15;;
23668;SDS011;12011;47.422;15.018;2022-10-23T08:46:46;1.34;;;1.34;;
23668;SDS011;12011;47.422;15.018;2022-10-23T08:49:49;1.27;;;1.27;;
23668;SDS011;12011;47.422;15.018;2022-10-23T08:52:27;1.29;;;1.29;;
23668;SDS011;12011;47.422;15.018;2022-10-23T08:55:11;1.40;;;1.40;;
23668;SDS011;12011;47.422;15.018;2022-10-23T08:57:47;1.24;;;1.24;;
23668;SDS011;12011;47.422;15.018;2022-10-23T09:00:26;1.35;;;1.35;;
23668;SDS011;12011;47.422;15.018;2022-10-23T09:02:59;1.40;;;1.40;;
23668;SDS011;12011;47.422;15.018;2022-10-23T09:05:33;1.50;;;1.50;;
23668;SDS011;12011;47.422;15.018;2022-10-23T09:08:22;1.45;;;1.45;;
23668;SDS011;12011;47.422;15.018;2022-10-23T09:11:14;1.28;;;1.28;;
23668;SDS011;12011;47.422;15.018;2022-10-23T09:13:56;1.37;;;1.37;;
23668;SDS011;12011;47.422;15.018;2022-10-23T09:16:55;1.20;;;1.20;;
23668;SDS011;12011;47.422;15.018;2022-10-23T09:19:40;1.46;;;1.46;;
23668;SDS011;12011;47.422;15.018;2022-10-23T09:22:15;1.28;;;1.28;;
23668;SDS011;12011;47.422;15.018;2022-10-23T09:24:44;1.17;;;1.17;;
23668;SDS011;12011;47.422;15.018;2022-10-23T09:27:16;1.24;;;1.24;;
23668;SDS011;12011;47.422;15.018;2022-10-23T09:29:46;1.39;;;1.39;;
23668;SDS011;12011;47.422;15.018;2022-10-23T09:32:18;1.33;;;1.33;;
23668;SDS011;12011;47.422;15.018;2022-10-23T09:34:49;1.30;;;1.30;;
23668;SDS011;12011;47.422;15.018;2022-10-23T09:37:22;1.18;;;1.18;;
23668;SDS011;12011;47.422;15.018;2022-10-23T09:40:02;1.33;;;1.33;;
23668;SDS011;12011;47.422;15.018;2022-10-23T09:42:57;1.23;;;1.23;;
23668;SDS011;12011;47.422;15.018;2022-10-23T09:45:31;1.44;;;1.44;;
23668;SDS011;12011;47.422;15.018;2022-10-23T09:48:10;1.40;;;1.40;;
23668;SDS011;12011;47.422;15.018;2022-10-23T09:50:52;1.14;;;1.14;;
23668;SDS011;12011;47.422;15.018;2022-10-23T09:53:34;1.34;;;1.34;;
23668;SDS011;12011;47.422;15.018;2022-10-23T09:56:27;1.33;;;1.33;;
23668;SDS011;12011;47.422;15.018;2022-10-23T09:59:03;1.36;;;1.36;;
23668;SDS011;12011;47.422;15.018;2022-10-23T10:01:49;1.17;;;1.17;;
23668;SDS011;12011;47.422;15.018;2022-10-23T10:04:54;1.15;;;1.15;;
23668;SDS011;12011;47.422;15.018;2022-10-23T10:07:24;1.17;;;1.17;;
23668;SDS011;12011;47.422;15.018;2022-10-23T10:09:56;1.43;;;1.43;;
23668;SDS011;12011;47.422;15.018;2022-10-23T10:12:29;1.19;;;1.19;;
23668;SDS011;12011;47.422;15.018;2022-10-23T10:15:23;1.21;;;1.21;;
23668;SDS011;12011;47.422;15.018;2022-10-23T10:18:01;1.53;;;1.53;;
23668;SDS011;12011;47.422;15.018;2022-10-23T10:20:47;1.30;;;1.30;;
23668;SDS011;12011;47.422;15.018;2022-10-23T10:23:34;1.38;;;1.38;;
23668;SDS011;12011;47.422;15.018;2022-10-23T10:26:19;1.14;;;1.14;;
23668;SDS011;12011;47.422;15.018;2022-10-23T10:29:07;1.25;;;1.25;;
23668;SDS011;12011;47.422;15.018;2022-10-23T10:31:55;1.29;;;1.29;;
23668;SDS011;12011;47.422;15.018;2022-10-23T10:34:39;1.43;;;1.43;;
23668;SDS011;12011;47.422;15.018;2022-10-23T10:37:20;1.46;;;1.46;;
23668;SDS011;12011;47.422;15.018;2022-10-23T10:40:06;1.34;;;1.34;;
23668;SDS011;12011;47.422;15.018;2022-10-23T10:42:54;1.43;;;1.43;;
23668;SDS011;12011;47.422;15.018;2022-10-23T10:45:45;1.19;;;1.19;;
23668;SDS011;12011;47.422;15.018;2022-10-23T10:48:34;1.20;;;1.20;;
23668;SDS011;12011;47.422;15.018;2022-10-23T10:51:43;1.14;;;1.14;;
23668;SDS011;12011;47.422;15.018;2022-10-23T10:54:29;1.06;;;1.06;;
23668;SDS011;12011;47.422;15.018;2022-10-23T10:57:22;1.26;;;1.26;;
23668;SDS011;12011;47.422;15.018;2022-10-23T11:00:00;1.24;;;1.24;;
23668;SDS011;12011;47.422;15.018;2022-10-23T11:02:44;1.09;;;1.09;;
23668;SDS011;12011;47.422;15.018;2022-10-23T11:05:24;1.17;;;1.17;;
23668;SDS011;12011;47.422;15.018;2022-10-23T11:08:04;0.99;;;0.99;;
23668;SDS011;12011;47.422;15.018;2022-10-23T11:10:47;1.18;;;1.18;;
23668;SDS011;12011;47.422;15.018;2022-10-23T11:13:25;1.35;;;1.35;;
23668;SDS011;12011;47.422;15.018;2022-10-23T11:16:01;1.40;;;1.40;;
23668;SDS011;12011;47.422;15.018;2022-10-23T11:19:02;1.31;;;1.31;;
23668;SDS011;12011;47.422;15.018;2022-10-23T11:21:42;1.63;;;1.63;;
23668;SDS011;12011;47.422;15.018;2022-10-23T11:24:28;1.76;;;1.76;;
23668;SDS011;12011;47.422;15.018;2022-10-23T11:27:36;1.74;;;1.74;;
23668;SDS011;12011;47.422;15.018;2022-10-23T11:30:45;1.57;;;1.57;;
23668;SDS011;12011;47.422;15.018;2022-10-23T11:33:54;1.58;;;1.58;;
23668;SDS011;12011;47.422;15.018;2022-10-23T11:36:55;1.75;;;1.75;;
23668;SDS011;12011;47.422;15.018;2022-10-23T11:39:29;2.06;;;2.06;;
23668;SDS011;12011;47.422;15.018;2022-10-23T11:42:12;1.63;;;1.63;;
23668;SDS011;12011;47.422;15.018;2022-10-23T11:44:43;1.58;;;1.58;;
23668;SDS011;12011;47.422;15.018;2022-10-23T11:47:25;1.43;;;1.43;;
23668;SDS011;12011;47.422;15.018;2022-10-23T11:50:11;1.38;;;1.38;;
23668;SDS011;12011;47.422;15.018;2022-10-23T11:55:55;1.46;;;1.46;;
23668;SDS011;12011;47.422;15.018;2022-10-23T11:58:39;1.49;;;1.49;;
23668;SDS011;12011;47.422;15.018;2022-10-23T12:01:16;1.45;;;1.45;;
23668;SDS011;12011;47.422;15.018;2022-10-23T12:03:56;1.52;;;1.52;;
23668;SDS011;12011;47.422;15.018;2022-10-23T12:06:31;1.38;;;1.38;;
23668;SDS011;12011;47.422;15.018;2022-10-23T12:09:22;1.29;;;1.29;;
23668;SDS011;12011;47.422;15.018;2022-10-23T12:12:15;1.39;;;1.39;;
23668;SDS011;12011;47.422;15.018;2022-10-23T12:15:07;1.32;;;1.32;;
23668;SDS011;12011;47.422;15.018;2022-10-23T12:17:50;1.40;;;1.40;;
23668;SDS011;12011;47.422;15.018;2022-10-23T12:20:30;1.46;;;1.46;;
23668;SDS011;12011;47.422;15.018;2022-10-23T12:26:24;1.45;;;1.45;;
23668;SDS011;12011;47.422;15.018;2022-10-23T12:29:27;1.30;;;1.30;;
23668;SDS011;12011;47.422;15.018;2022-10-23T12:32:25;1.38;;;1.38;;
23668;SDS011;12011;47.422;15.018;2022-10-23T12:38:38;1.07;;;1.07;;
23668;SDS011;12011;47.422;15.018;2022-10-23T12:41:14;1.26;;;1.26;;
23668;SDS011;12011;47.422;15.018;2022-10-23T12:43:52;1.32;;;1.32;;
23668;SDS011;12011;47.422;15.018;2022-10-23T12:46:28;1.16;;;1.16;;
23668;SDS011;12011;47.422;15.018;2022-10-23T12:49:10;1.05;;;1.05;;
23668;SDS011;12011;47.422;15.018;2022-10-23T12:51:43;1.23;;;1.22;;
23668;SDS011;12011;47.422;15.018;2022-10-23T12:54:14;1.10;;;1.10;;
23668;SDS011;12011;47.422;15.018;2022-10-23T12:56:46;1.25;;;1.25;;
23668;SDS011;12011;47.422;15.018;2022-10-23T12:59:21;1.12;;;1.12;;
23668;SDS011;12011;47.422;15.018;2022-10-23T13:01:53;1.20;;;1.20;;
23668;SDS011;12011;47.422;15.018;2022-10-23T13:04:27;1.32;;;1.32;;
23668;SDS011;12011;47.422;15.018;2022-10-23T13:07:02;1.31;;;1.31;;
23668;SDS011;12011;47.422;15.018;2022-10-23T13:09:34;1.27;;;1.27;;
23668;SDS011;12011;47.422;15.018;2022-10-23T13:12:18;1.47;;;1.47;;
23668;SDS011;12011;47.422;15.018;2022-10-23T13:14:58;1.37;;;1.37;;
23668;SDS011;12011;47.422;15.018;2022-10-23T13:17:40;1.26;;;1.26;;
23668;SDS011;12011;47.422;15.018;2022-10-23T13:20:19;1.27;;;1.27;;
23668;SDS011;12011;47.422;15.018;2022-10-23T13:22:56;1.46;;;1.46;;
23668;SDS011;12011;47.422;15.018;2022-10-23T13:25:29;1.23;;;1.23;;
23668;SDS011;12011;47.422;15.018;2022-10-23T13:31:04;1.66;;;1.66;;
23668;SDS011;12011;47.422;15.018;2022-10-23T13:34:01;1.57;;;1.57;;
23668;SDS011;12011;47.422;15.018;2022-10-23T13:36:56;1.96;;;1.96;;
23668;SDS011;12011;47.422;15.018;2022-10-23T13:39:30;3.13;;;3.12;;
23668;SDS011;12011;47.422;15.018;2022-10-23T13:42:09;2.42;;;2.41;;
23668;SDS011;12011;47.422;15.018;2022-10-23T13:44:42;1.70;;;1.70;;
23668;SDS011;12011;47.422;15.018;2022-10-23T13:47:14;1.42;;;1.42;;
23668;SDS011;12011;47.422;15.018;2022-10-23T13:49:45;1.53;;;1.53;;
23668;SDS011;12011;47.422;15.018;2022-10-23T13:52:16;1.43;;;1.43;;
23668;SDS011;12011;47.422;15.018;2022-10-23T13:54:49;1.63;;;1.63;;
23668;SDS011;12011;47.422;15.018;2022-10-23T13:57:18;1.78;;;1.78;;
23668;SDS011;12011;47.422;15.018;2022-10-23T13:59:48;1.42;;;1.42;;
23668;SDS011;12011;47.422;15.018;2022-10-23T14:02:22;1.84;;;1.84;;
23668;SDS011;12011;47.422;15.018;2022-10-23T14:04:52;1.56;;;1.56;;
23668;SDS011;12011;47.422;15.018;2022-10-23T14:07:21;1.63;;;1.63;;
23668;SDS011;12011;47.422;15.018;2022-10-23T14:09:51;1.71;;;1.71;;
23668;SDS011;12011;47.422;15.018;2022-10-23T14:12:20;1.53;;;1.53;;
23668;SDS011;12011;47.422;15.018;2022-10-23T14:14:50;1.54;;;1.54;;
23668;SDS011;12011;47.422;15.018;2022-10-23T14:17:23;1.53;;;1.53;;
23668;SDS011;12011;47.422;15.018;2022-10-23T14:19:52;1.35;;;1.35;;
23668;SDS011;12011;47.422;15.018;2022-10-23T14:22:22;1.58;;;1.58;;
23668;SDS011;12011;47.422;15.018;2022-10-23T14:24:52;1.76;;;1.76;;
23668;SDS011;12011;47.422;15.018;2022-10-23T14:27:24;1.77;;;1.77;;
23668;SDS011;12011;47.422;15.018;2022-10-23T14:30:04;2.09;;;2.09;;
23668;SDS011;12011;47.422;15.018;2022-10-23T14:32:47;1.91;;;1.91;;
23668;SDS011;12011;47.422;15.018;2022-10-23T14:35:18;1.95;;;1.95;;
23668;SDS011;12011;47.422;15.018;2022-10-23T14:37:48;1.78;;;1.78;;
23668;SDS011;12011;47.422;15.018;2022-10-23T14:40:30;1.86;;;1.86;;
23668;SDS011;12011;47.422;15.018;2022-10-23T14:43:05;2.01;;;2.01;;
23668;SDS011;12011;47.422;15.018;2022-10-23T14:45:38;2.44;;;2.44;;
23668;SDS011;12011;47.422;15.018;2022-10-23T14:48:13;2.73;;;2.73;;
23668;SDS011;12011;47.422;15.018;2022-10-23T14:50:43;2.07;;;2.07;;
23668;SDS011;12011;47.422;15.018;2022-10-23T14:53:19;1.98;;;1.98;;
23668;SDS011;12011;47.422;15.018;2022-10-23T14:55:50;1.61;;;1.61;;
23668;SDS011;12011;47.422;15.018;2022-10-23T14:58:38;1.74;;;1.74;;
23668;SDS011;12011;47.422;15.018;2022-10-23T15:01:11;2.28;;;2.28;;
23668;SDS011;12011;47.422;15.018;2022-10-23T15:03:48;2.46;;;2.46;;
23668;SDS011;12011;47.422;15.018;2022-10-23T15:06:32;1.84;;;1.84;;
23668;SDS011;12011;47.422;15.018;2022-10-23T15:09:08;2.00;;;2.00;;
23668;SDS011;12011;47.422;15.018;2022-10-23T15:11:49;1.72;;;1.72;;
23668;SDS011;12011;47.422;15.018;2022-10-23T15:14:31;1.61;;;1.61;;
23668;SDS011;12011;47.422;15.018;2022-10-23T15:17:01;1.54;;;1.54;;
23668;SDS011;12011;47.422;15.018;2022-10-23T15:19:44;1.42;;;1.42;;
23668;SDS011;12011;47.422;15.018;2022-10-23T15:22:21;2.31;;;2.31;;
23668;SDS011;12011;47.422;15.018;2022-10-23T15:24:55;2.15;;;2.14;;
23668;SDS011;12011;47.422;15.018;2022-10-23T15:27:40;2.61;;;2.60;;
23668;SDS011;12011;47.422;15.018;2022-10-23T15:30:14;2.76;;;2.74;;
23668;SDS011;12011;47.422;15.018;2022-10-23T15:32:49;2.69;;;2.68;;
23668;SDS011;12011;47.422;15.018;2022-10-23T15:35:47;2.90;;;2.90;;
23668;SDS011;12011;47.422;15.018;2022-10-23T15:38:26;3.04;;;3.04;;
23668;SDS011;12011;47.422;15.018;2022-10-23T15:40:59;2.78;;;2.78;;
23668;SDS011;12011;47.422;15.018;2022-10-23T15:43:50;2.09;;;2.09;;
23668;SDS011;12011;47.422;15.018;2022-10-23T15:46:23;2.28;;;2.28;;
23668;SDS011;12011;47.422;15.018;2022-10-23T15:48:53;2.51;;;2.51;;
23668;SDS011;12011;47.422;15.018;2022-10-23T15:51:26;2.93;;;2.93;;
23668;SDS011;12011;47.422;15.018;2022-10-23T15:53:55;2.35;;;2.35;;
23668;SDS011;12011;47.422;15.018;2022-10-23T15:56:25;2.39;;;2.39;;
23668;SDS011;12011;47.422;15.018;2022-10-23T15:58:54;2.55;;;2.54;;
23668;SDS011;12011;47.422;15.018;2022-10-23T16:01:24;2.21;;;2.19;;
23668;SDS011;12011;47.422;15.018;2022-10-23T16:03:54;2.06;;;2.05;;
23668;SDS011;12011;47.422;15.018;2022-10-23T16:06:26;2.25;;;2.24;;
23668;SDS011;12011;47.422;15.018;2022-10-23T16:08:58;2.64;;;2.63;;
23668;SDS011;12011;47.422;15.018;2022-10-23T16:11:29;3.24;;;3.23;;
23668;SDS011;12011;47.422;15.018;2022-10-23T16:14:01;3.26;;;3.25;;